sensor_id;sensor_type;location;lat;lon;timestamp;P1;durP1;ratioP1;P2;durP2;ratioP2
7719;SDS011;3902;49.474;8.616;2023-05-10T00:01:05;2.17;;;1.97;;
7719;SDS011;3902;49.474;8.616;2023-05-10T00:03:31;1.33;;;1.20;;
7719;SDS011;3902;49.474;8.616;2023-05-10T00:05:57;3.03;;;1.40;;
7719;SDS011;3902;49.474;8.616;2023-05-10T00:08:22;2.00;;;1.53;;
7719;SDS011;3902;49.474;8.616;2023-05-10T00:10:48;2.03;;;1.50;;
7719;SDS011;3902;49.474;8.616;2023-05-10T00:13:13;2.03;;;1.83;;
7719;SDS011;3902;49.474;8.616;2023-05-10T00:15:39;1.70;;;1.60;;
7719;SDS011;3902;49.474;8.616;2023-05-10T00:18:04;2.50;;;1.30;;
7719;SDS011;3902;49.474;8.616;2023-05-10T00:20:30;1.57;;;1.40;;
7719;SDS011;3902;49.474;8.616;2023-05-10T00:22:56;1.87;;;1.47;;
7719;SDS011;3902;49.474;8.616;2023-05-10T00:25:21;1.70;;;1.30;;
7719;SDS011;3902;49.474;8.616;2023-05-10T00:27:47;1.77;;;1.27;;
7719;SDS011;3902;49.474;8.616;2023-05-10T00:30:13;1.40;;;1.30;;
7719;SDS011;3902;49.474;8.616;2023-05-10T00:32:38;1.70;;;1.10;;
7719;SDS011;3902;49.474;8.616;2023-05-10T00:35:04;3.13;;;1.73;;
7719;SDS011;3902;49.474;8.616;2023-05-10T00:37:30;2.40;;;1.40;;
7719;SDS011;3902;49.474;8.616;2023-05-10T00:39:55;1.40;;;1.30;;
7719;SDS011;3902;49.474;8.616;2023-05-10T00:42:21;1.37;;;1.27;;
7719;SDS011;3902;49.474;8.616;2023-05-10T00:44:47;1.37;;;1.27;;
7719;SDS011;3902;49.474;8.616;2023-05-10T00:47:12;1.50;;;1.40;;
7719;SDS011;3902;49.474;8.616;2023-05-10T00:49:38;1.77;;;1.40;;
7719;SDS011;3902;49.474;8.616;2023-05-10T00:52:04;1.50;;;1.40;;
7719;SDS011;3902;49.474;8.616;2023-05-10T00:54:30;3.13;;;1.50;;
7719;SDS011;3902;49.474;8.616;2023-05-10T00:56:55;1.37;;;1.27;;
7719;SDS011;3902;49.474;8.616;2023-05-10T00:59:22;1.47;;;1.37;;
7719;SDS011;3902;49.474;8.616;2023-05-10T01:01:47;1.50;;;1.37;;
7719;SDS011;3902;49.474;8.616;2023-05-10T01:04:13;1.70;;;1.57;;
7719;SDS011;3902;49.474;8.616;2023-05-10T01:06:39;1.67;;;1.30;;
7719;SDS011;3902;49.474;8.616;2023-05-10T01:09:08;1.40;;;1.30;;
7719;SDS011;3902;49.474;8.616;2023-05-10T01:11:35;1.43;;;1.33;;
7719;SDS011;3902;49.474;8.616;2023-05-10T01:14:02;2.00;;;1.20;;
7719;SDS011;3902;49.474;8.616;2023-05-10T01:16:31;1.30;;;1.20;;
7719;SDS011;3902;49.474;8.616;2023-05-10T01:18:59;1.80;;;1.27;;
7719;SDS011;3902;49.474;8.616;2023-05-10T01:21:32;1.30;;;1.20;;
7719;SDS011;3902;49.474;8.616;2023-05-10T01:26:39;1.40;;;1.30;;
7719;SDS011;3902;49.474;8.616;2023-05-10T01:29:35;1.30;;;1.20;;
7719;SDS011;3902;49.474;8.616;2023-05-10T01:34:58;1.50;;;1.10;;
7719;SDS011;3902;49.474;8.616;2023-05-10T01:37:37;2.20;;;1.17;;
7719;SDS011;3902;49.474;8.616;2023-05-10T01:40:15;1.40;;;1.20;;
7719;SDS011;3902;49.474;8.616;2023-05-10T01:42:51;1.07;;;0.90;;
7719;SDS011;3902;49.474;8.616;2023-05-10T01:45:27;1.17;;;1.07;;
7719;SDS011;3902;49.474;8.616;2023-05-10T01:48:06;1.27;;;1.17;;
7719;SDS011;3902;49.474;8.616;2023-05-10T01:50:35;1.23;;;0.93;;
7719;SDS011;3902;49.474;8.616;2023-05-10T01:53:02;1.40;;;1.30;;
7719;SDS011;3902;49.474;8.616;2023-05-10T01:55:32;5.70;;;1.07;;
7719;SDS011;3902;49.474;8.616;2023-05-10T01:58:07;1.67;;;1.30;;
7719;SDS011;3902;49.474;8.616;2023-05-10T02:00:34;1.10;;;1.00;;
7719;SDS011;3902;49.474;8.616;2023-05-10T02:03:06;1.23;;;0.90;;
7719;SDS011;3902;49.474;8.616;2023-05-10T02:05:34;1.07;;;0.90;;
7719;SDS011;3902;49.474;8.616;2023-05-10T02:08:01;1.33;;;1.00;;
7719;SDS011;3902;49.474;8.616;2023-05-10T02:10:30;1.10;;;1.00;;
7719;SDS011;3902;49.474;8.616;2023-05-10T02:12:58;1.30;;;1.20;;
7719;SDS011;3902;49.474;8.616;2023-05-10T02:15:24;1.27;;;1.00;;
7719;SDS011;3902;49.474;8.616;2023-05-10T02:17:51;1.20;;;1.10;;
7719;SDS011;3902;49.474;8.616;2023-05-10T02:20:19;1.10;;;1.00;;
7719;SDS011;3902;49.474;8.616;2023-05-10T02:22:47;1.20;;;1.10;;
7719;SDS011;3902;49.474;8.616;2023-05-10T02:25:15;1.57;;;1.10;;
7719;SDS011;3902;49.474;8.616;2023-05-10T02:27:42;1.17;;;1.07;;
7719;SDS011;3902;49.474;8.616;2023-05-10T02:30:09;1.13;;;1.03;;
7719;SDS011;3902;49.474;8.616;2023-05-10T02:32:36;1.30;;;1.10;;
7719;SDS011;3902;49.474;8.616;2023-05-10T02:35:02;2.23;;;0.90;;
7719;SDS011;3902;49.474;8.616;2023-05-10T02:37:28;1.67;;;1.20;;
7719;SDS011;3902;49.474;8.616;2023-05-10T02:39:55;1.10;;;1.00;;
7719;SDS011;3902;49.474;8.616;2023-05-10T02:42:23;1.20;;;1.07;;
7719;SDS011;3902;49.474;8.616;2023-05-10T02:45:02;1.83;;;1.23;;
7719;SDS011;3902;49.474;8.616;2023-05-10T02:47:32;2.67;;;1.10;;
7719;SDS011;3902;49.474;8.616;2023-05-10T02:49:57;1.17;;;1.07;;
7719;SDS011;3902;49.474;8.616;2023-05-10T02:52:25;1.17;;;1.07;;
7719;SDS011;3902;49.474;8.616;2023-05-10T02:54:55;1.77;;;1.10;;
7719;SDS011;3902;49.474;8.616;2023-05-10T02:57:25;2.20;;;1.00;;
7719;SDS011;3902;49.474;8.616;2023-05-10T02:59:53;1.10;;;0.90;;
7719;SDS011;3902;49.474;8.616;2023-05-10T03:02:20;1.73;;;1.10;;
7719;SDS011;3902;49.474;8.616;2023-05-10T03:04:45;1.17;;;1.03;;
7719;SDS011;3902;49.474;8.616;2023-05-10T03:07:11;1.87;;;1.10;;
7719;SDS011;3902;49.474;8.616;2023-05-10T03:09:37;1.40;;;1.30;;
7719;SDS011;3902;49.474;8.616;2023-05-10T03:12:19;1.20;;;1.10;;
7719;SDS011;3902;49.474;8.616;2023-05-10T03:20:31;1.23;;;1.13;;
7719;SDS011;3902;49.474;8.616;2023-05-10T03:23:05;1.30;;;1.20;;
7719;SDS011;3902;49.474;8.616;2023-05-10T03:25:36;1.47;;;1.30;;
7719;SDS011;3902;49.474;8.616;2023-05-10T03:28:02;5.23;;;1.40;;
7719;SDS011;3902;49.474;8.616;2023-05-10T03:30:29;1.33;;;1.23;;
7719;SDS011;3902;49.474;8.616;2023-05-10T03:32:56;1.27;;;1.17;;
7719;SDS011;3902;49.474;8.616;2023-05-10T03:35:22;1.30;;;1.20;;
7719;SDS011;3902;49.474;8.616;2023-05-10T03:37:48;1.20;;;1.10;;
7719;SDS011;3902;49.474;8.616;2023-05-10T03:40:14;2.07;;;1.37;;
7719;SDS011;3902;49.474;8.616;2023-05-10T03:42:40;2.10;;;1.20;;
7719;SDS011;3902;49.474;8.616;2023-05-10T03:45:06;1.73;;;1.40;;
7719;SDS011;3902;49.474;8.616;2023-05-10T03:47:32;2.53;;;1.60;;
7719;SDS011;3902;49.474;8.616;2023-05-10T03:49:58;2.03;;;1.30;;
7719;SDS011;3902;49.474;8.616;2023-05-10T03:52:23;2.17;;;1.30;;
7719;SDS011;3902;49.474;8.616;2023-05-10T03:54:49;1.40;;;1.30;;
7719;SDS011;3902;49.474;8.616;2023-05-10T03:57:14;2.20;;;1.60;;
7719;SDS011;3902;49.474;8.616;2023-05-10T03:59:40;1.47;;;1.37;;
7719;SDS011;3902;49.474;8.616;2023-05-10T04:02:05;1.50;;;1.40;;
7719;SDS011;3902;49.474;8.616;2023-05-10T04:04:31;2.07;;;1.60;;
7719;SDS011;3902;49.474;8.616;2023-05-10T04:06:56;1.70;;;1.37;;
7719;SDS011;3902;49.474;8.616;2023-05-10T04:09:22;1.57;;;1.30;;
7719;SDS011;3902;49.474;8.616;2023-05-10T04:11:47;1.20;;;1.10;;
7719;SDS011;3902;49.474;8.616;2023-05-10T04:14:13;1.40;;;1.30;;
7719;SDS011;3902;49.474;8.616;2023-05-10T04:16:38;2.70;;;1.70;;
7719;SDS011;3902;49.474;8.616;2023-05-10T04:19:04;1.77;;;1.27;;
7719;SDS011;3902;49.474;8.616;2023-05-10T04:21:29;1.50;;;1.40;;
7719;SDS011;3902;49.474;8.616;2023-05-10T04:23:55;1.43;;;1.33;;
7719;SDS011;3902;49.474;8.616;2023-05-10T04:26:20;3.50;;;1.20;;
7719;SDS011;3902;49.474;8.616;2023-05-10T04:28:46;2.03;;;1.50;;
7719;SDS011;3902;49.474;8.616;2023-05-10T04:31:12;1.60;;;1.40;;
7719;SDS011;3902;49.474;8.616;2023-05-10T04:33:37;1.40;;;1.30;;
7719;SDS011;3902;49.474;8.616;2023-05-10T04:36:03;1.57;;;1.47;;
7719;SDS011;3902;49.474;8.616;2023-05-10T04:38:29;1.40;;;1.30;;
7719;SDS011;3902;49.474;8.616;2023-05-10T04:41:03;1.57;;;1.47;;
7719;SDS011;3902;49.474;8.616;2023-05-10T04:43:32;1.40;;;1.30;;
7719;SDS011;3902;49.474;8.616;2023-05-10T04:45:58;2.10;;;1.30;;
7719;SDS011;3902;49.474;8.616;2023-05-10T04:48:23;3.40;;;1.70;;
7719;SDS011;3902;49.474;8.616;2023-05-10T04:50:49;2.70;;;1.43;;
7719;SDS011;3902;49.474;8.616;2023-05-10T04:53:14;2.10;;;1.53;;
7719;SDS011;3902;49.474;8.616;2023-05-10T04:55:40;1.90;;;1.60;;
7719;SDS011;3902;49.474;8.616;2023-05-10T04:58:05;1.80;;;1.50;;
7719;SDS011;3902;49.474;8.616;2023-05-10T05:00:31;1.53;;;1.43;;
7719;SDS011;3902;49.474;8.616;2023-05-10T05:02:57;2.03;;;1.70;;
7719;SDS011;3902;49.474;8.616;2023-05-10T05:05:23;1.93;;;1.80;;
7719;SDS011;3902;49.474;8.616;2023-05-10T05:07:48;1.40;;;1.30;;
7719;SDS011;3902;49.474;8.616;2023-05-10T05:10:14;1.83;;;1.73;;
7719;SDS011;3902;49.474;8.616;2023-05-10T05:12:39;1.80;;;1.70;;
7719;SDS011;3902;49.474;8.616;2023-05-10T05:15:05;1.80;;;1.70;;
7719;SDS011;3902;49.474;8.616;2023-05-10T05:17:33;2.43;;;1.60;;
7719;SDS011;3902;49.474;8.616;2023-05-10T05:19:58;2.23;;;1.80;;
7719;SDS011;3902;49.474;8.616;2023-05-10T05:22:24;1.90;;;1.80;;
7719;SDS011;3902;49.474;8.616;2023-05-10T05:24:52;1.87;;;1.77;;
7719;SDS011;3902;49.474;8.616;2023-05-10T05:27:21;1.87;;;1.77;;
7719;SDS011;3902;49.474;8.616;2023-05-10T05:29:49;2.27;;;2.00;;
7719;SDS011;3902;49.474;8.616;2023-05-10T05:32:16;1.90;;;1.80;;
7719;SDS011;3902;49.474;8.616;2023-05-10T05:34:41;2.50;;;2.00;;
7719;SDS011;3902;49.474;8.616;2023-05-10T05:37:12;2.07;;;1.97;;
7719;SDS011;3902;49.474;8.616;2023-05-10T05:39:41;2.20;;;2.03;;
7719;SDS011;3902;49.474;8.616;2023-05-10T05:42:08;2.20;;;2.00;;
7719;SDS011;3902;49.474;8.616;2023-05-10T05:44:34;2.20;;;2.10;;
7719;SDS011;3902;49.474;8.616;2023-05-10T05:46:59;2.53;;;2.23;;
7719;SDS011;3902;49.474;8.616;2023-05-10T05:49:25;2.40;;;2.10;;
7719;SDS011;3902;49.474;8.616;2023-05-10T05:51:51;2.20;;;2.07;;
7719;SDS011;3902;49.474;8.616;2023-05-10T05:54:16;2.47;;;2.27;;
7719;SDS011;3902;49.474;8.616;2023-05-10T05:56:42;2.73;;;2.23;;
7719;SDS011;3902;49.474;8.616;2023-05-10T05:59:09;2.37;;;2.17;;
7719;SDS011;3902;49.474;8.616;2023-05-10T06:01:35;2.20;;;2.10;;
7719;SDS011;3902;49.474;8.616;2023-05-10T06:04:00;2.30;;;2.20;;
7719;SDS011;3902;49.474;8.616;2023-05-10T06:06:26;2.00;;;1.90;;
7719;SDS011;3902;49.474;8.616;2023-05-10T06:08:51;2.20;;;2.00;;
7719;SDS011;3902;49.474;8.616;2023-05-10T06:11:17;2.47;;;2.27;;
7719;SDS011;3902;49.474;8.616;2023-05-10T06:13:43;2.17;;;2.07;;
7719;SDS011;3902;49.474;8.616;2023-05-10T06:16:08;2.53;;;2.33;;
7719;SDS011;3902;49.474;8.616;2023-05-10T06:18:34;3.00;;;2.70;;
7719;SDS011;3902;49.474;8.616;2023-05-10T06:20:59;2.77;;;2.33;;
7719;SDS011;3902;49.474;8.616;2023-05-10T06:23:25;3.73;;;2.53;;
7719;SDS011;3902;49.474;8.616;2023-05-10T06:25:51;2.73;;;2.47;;
7719;SDS011;3902;49.474;8.616;2023-05-10T06:28:17;3.00;;;2.80;;
7719;SDS011;3902;49.474;8.616;2023-05-10T06:30:42;3.03;;;2.83;;
7719;SDS011;3902;49.474;8.616;2023-05-10T06:33:08;3.33;;;3.03;;
7719;SDS011;3902;49.474;8.616;2023-05-10T06:35:33;2.63;;;2.43;;
7719;SDS011;3902;49.474;8.616;2023-05-10T06:37:59;2.73;;;2.53;;
7719;SDS011;3902;49.474;8.616;2023-05-10T06:40:24;3.37;;;2.67;;
7719;SDS011;3902;49.474;8.616;2023-05-10T06:42:50;2.73;;;2.53;;
7719;SDS011;3902;49.474;8.616;2023-05-10T06:45:16;2.70;;;2.50;;
7719;SDS011;3902;49.474;8.616;2023-05-10T06:47:42;4.20;;;3.17;;
7719;SDS011;3902;49.474;8.616;2023-05-10T06:50:08;3.27;;;2.93;;
7719;SDS011;3902;49.474;8.616;2023-05-10T06:52:34;2.83;;;2.53;;
7719;SDS011;3902;49.474;8.616;2023-05-10T06:55:00;4.50;;;2.53;;
7719;SDS011;3902;49.474;8.616;2023-05-10T06:57:26;3.23;;;3.03;;
7719;SDS011;3902;49.474;8.616;2023-05-10T06:59:52;3.20;;;3.00;;
7719;SDS011;3902;49.474;8.616;2023-05-10T07:02:17;3.20;;;3.00;;
7719;SDS011;3902;49.474;8.616;2023-05-10T07:04:43;6.00;;;2.73;;
7719;SDS011;3902;49.474;8.616;2023-05-10T07:07:08;3.50;;;3.20;;
7719;SDS011;3902;49.474;8.616;2023-05-10T07:09:34;3.00;;;2.50;;
7719;SDS011;3902;49.474;8.616;2023-05-10T07:12:00;2.70;;;2.43;;
7719;SDS011;3902;49.474;8.616;2023-05-10T07:14:26;3.07;;;2.77;;
7719;SDS011;3902;49.474;8.616;2023-05-10T07:16:52;2.80;;;2.60;;
7719;SDS011;3902;49.474;8.616;2023-05-10T07:19:18;2.70;;;2.50;;
7719;SDS011;3902;49.474;8.616;2023-05-10T07:21:44;2.57;;;2.37;;
7719;SDS011;3902;49.474;8.616;2023-05-10T07:24:10;3.77;;;2.73;;
7719;SDS011;3902;49.474;8.616;2023-05-10T07:26:35;4.20;;;3.00;;
7719;SDS011;3902;49.474;8.616;2023-05-10T07:29:01;3.13;;;2.93;;
7719;SDS011;3902;49.474;8.616;2023-05-10T07:31:27;2.80;;;2.60;;
7719;SDS011;3902;49.474;8.616;2023-05-10T07:33:52;2.47;;;2.27;;
7719;SDS011;3902;49.474;8.616;2023-05-10T07:36:18;2.70;;;2.50;;
7719;SDS011;3902;49.474;8.616;2023-05-10T07:38:43;3.90;;;2.30;;
7719;SDS011;3902;49.474;8.616;2023-05-10T07:41:11;2.70;;;2.20;;
7719;SDS011;3902;49.474;8.616;2023-05-10T07:43:37;3.00;;;2.70;;
7719;SDS011;3902;49.474;8.616;2023-05-10T07:46:02;2.50;;;2.30;;
7719;SDS011;3902;49.474;8.616;2023-05-10T07:48:28;2.73;;;2.30;;
7719;SDS011;3902;49.474;8.616;2023-05-10T07:50:53;3.10;;;2.47;;
7719;SDS011;3902;49.474;8.616;2023-05-10T07:53:19;3.13;;;2.70;;
7719;SDS011;3902;49.474;8.616;2023-05-10T07:55:44;2.70;;;2.50;;
7719;SDS011;3902;49.474;8.616;2023-05-10T07:58:15;3.10;;;2.40;;
7719;SDS011;3902;49.474;8.616;2023-05-10T08:00:41;2.37;;;2.17;;
7719;SDS011;3902;49.474;8.616;2023-05-10T08:03:06;2.13;;;1.93;;
7719;SDS011;3902;49.474;8.616;2023-05-10T08:05:31;1.90;;;1.80;;
7719;SDS011;3902;49.474;8.616;2023-05-10T08:07:57;2.50;;;2.30;;
7719;SDS011;3902;49.474;8.616;2023-05-10T08:10:24;2.50;;;2.30;;
7719;SDS011;3902;49.474;8.616;2023-05-10T08:12:49;2.83;;;2.20;;
7719;SDS011;3902;49.474;8.616;2023-05-10T08:15:15;2.37;;;2.17;;
7719;SDS011;3902;49.474;8.616;2023-05-10T08:17:40;2.40;;;2.20;;
7719;SDS011;3902;49.474;8.616;2023-05-10T08:20:06;2.27;;;2.07;;
7719;SDS011;3902;49.474;8.616;2023-05-10T08:22:32;2.33;;;1.80;;
7719;SDS011;3902;49.474;8.616;2023-05-10T08:24:58;2.70;;;1.70;;
7719;SDS011;3902;49.474;8.616;2023-05-10T08:27:23;1.80;;;1.70;;
7719;SDS011;3902;49.474;8.616;2023-05-10T08:29:49;2.00;;;1.90;;
7719;SDS011;3902;49.474;8.616;2023-05-10T08:32:14;2.20;;;2.00;;
7719;SDS011;3902;49.474;8.616;2023-05-10T08:34:40;2.73;;;2.07;;
7719;SDS011;3902;49.474;8.616;2023-05-10T08:37:07;2.10;;;1.93;;
7719;SDS011;3902;49.474;8.616;2023-05-10T08:39:35;4.07;;;1.90;;
7719;SDS011;3902;49.474;8.616;2023-05-10T08:42:01;1.70;;;1.60;;
7719;SDS011;3902;49.474;8.616;2023-05-10T08:44:29;2.13;;;1.63;;
7719;SDS011;3902;49.474;8.616;2023-05-10T08:46:58;1.77;;;1.60;;
7719;SDS011;3902;49.474;8.616;2023-05-10T08:49:27;1.67;;;1.57;;
7719;SDS011;3902;49.474;8.616;2023-05-10T08:51:55;2.60;;;1.70;;
7719;SDS011;3902;49.474;8.616;2023-05-10T08:54:22;1.70;;;1.60;;
7719;SDS011;3902;49.474;8.616;2023-05-10T08:56:48;1.40;;;1.30;;
7719;SDS011;3902;49.474;8.616;2023-05-10T08:59:13;2.00;;;1.70;;
7719;SDS011;3902;49.474;8.616;2023-05-10T09:01:40;2.97;;;1.80;;
7719;SDS011;3902;49.474;8.616;2023-05-10T09:04:07;1.80;;;1.70;;
7719;SDS011;3902;49.474;8.616;2023-05-10T09:06:33;6.93;;;2.20;;
7719;SDS011;3902;49.474;8.616;2023-05-10T09:08:59;2.23;;;1.70;;
7719;SDS011;3902;49.474;8.616;2023-05-10T09:11:25;1.80;;;1.60;;
7719;SDS011;3902;49.474;8.616;2023-05-10T09:13:53;2.77;;;1.80;;
7719;SDS011;3902;49.474;8.616;2023-05-10T09:16:20;2.10;;;1.90;;
7719;SDS011;3902;49.474;8.616;2023-05-10T09:18:45;3.67;;;1.50;;
7719;SDS011;3902;49.474;8.616;2023-05-10T09:21:11;1.93;;;1.73;;
7719;SDS011;3902;49.474;8.616;2023-05-10T09:23:38;3.33;;;2.07;;
7719;SDS011;3902;49.474;8.616;2023-05-10T09:26:08;1.87;;;1.67;;
7719;SDS011;3902;49.474;8.616;2023-05-10T09:28:34;3.27;;;1.87;;
7719;SDS011;3902;49.474;8.616;2023-05-10T09:31:14;1.60;;;1.50;;
7719;SDS011;3902;49.474;8.616;2023-05-10T09:33:46;4.77;;;1.50;;
7719;SDS011;3902;49.474;8.616;2023-05-10T09:36:13;5.97;;;2.40;;
7719;SDS011;3902;49.474;8.616;2023-05-10T09:38:46;3.57;;;1.97;;
7719;SDS011;3902;49.474;8.616;2023-05-10T09:41:23;2.10;;;1.60;;
7719;SDS011;3902;49.474;8.616;2023-05-10T09:43:50;1.60;;;1.50;;
7719;SDS011;3902;49.474;8.616;2023-05-10T09:46:19;1.60;;;1.50;;
7719;SDS011;3902;49.474;8.616;2023-05-10T09:48:46;2.23;;;1.60;;
7719;SDS011;3902;49.474;8.616;2023-05-10T09:51:22;1.53;;;1.40;;
7719;SDS011;3902;49.474;8.616;2023-05-10T09:54:08;1.50;;;1.40;;
7719;SDS011;3902;49.474;8.616;2023-05-10T09:56:38;2.77;;;1.80;;
7719;SDS011;3902;49.474;8.616;2023-05-10T09:59:05;2.33;;;1.87;;
7719;SDS011;3902;49.474;8.616;2023-05-10T10:01:33;1.73;;;1.63;;
7719;SDS011;3902;49.474;8.616;2023-05-10T10:03:59;3.20;;;1.70;;
7719;SDS011;3902;49.474;8.616;2023-05-10T10:06:28;2.57;;;1.50;;
7719;SDS011;3902;49.474;8.616;2023-05-10T10:08:55;1.60;;;1.50;;
7719;SDS011;3902;49.474;8.616;2023-05-10T10:11:21;1.40;;;1.30;;
7719;SDS011;3902;49.474;8.616;2023-05-10T10:13:48;1.63;;;1.53;;
7719;SDS011;3902;49.474;8.616;2023-05-10T10:16:14;1.70;;;1.60;;
7719;SDS011;3902;49.474;8.616;2023-05-10T10:18:40;5.13;;;1.47;;
7719;SDS011;3902;49.474;8.616;2023-05-10T10:21:07;2.50;;;1.33;;
7719;SDS011;3902;49.474;8.616;2023-05-10T10:23:35;2.43;;;1.50;;
7719;SDS011;3902;49.474;8.616;2023-05-10T10:26:02;2.10;;;1.53;;
7719;SDS011;3902;49.474;8.616;2023-05-10T10:28:35;1.50;;;1.40;;
7719;SDS011;3902;49.474;8.616;2023-05-10T10:34:05;2.70;;;1.50;;
7719;SDS011;3902;49.474;8.616;2023-05-10T10:36:40;1.40;;;1.30;;
7719;SDS011;3902;49.474;8.616;2023-05-10T10:39:10;1.50;;;1.40;;
7719;SDS011;3902;49.474;8.616;2023-05-10T10:41:37;2.10;;;1.60;;
7719;SDS011;3902;49.474;8.616;2023-05-10T10:47:39;2.27;;;1.40;;
7719;SDS011;3902;49.474;8.616;2023-05-10T10:52:20;1.70;;;1.57;;
7719;SDS011;3902;49.474;8.616;2023-05-10T10:55:01;2.53;;;1.90;;
7719;SDS011;3902;49.474;8.616;2023-05-10T10:57:32;2.57;;;1.73;;
7719;SDS011;3902;49.474;8.616;2023-05-10T11:00:28;1.80;;;1.70;;
7719;SDS011;3902;49.474;8.616;2023-05-10T11:02:59;2.70;;;1.60;;
7719;SDS011;3902;49.474;8.616;2023-05-10T11:07:54;2.20;;;2.10;;
7719;SDS011;3902;49.474;8.616;2023-05-10T11:10:24;2.53;;;1.87;;
7719;SDS011;3902;49.474;8.616;2023-05-10T11:12:51;2.03;;;1.63;;
7719;SDS011;3902;49.474;8.616;2023-05-10T11:15:17;4.30;;;1.87;;
7719;SDS011;3902;49.474;8.616;2023-05-10T11:17:43;2.60;;;1.97;;
7719;SDS011;3902;49.474;8.616;2023-05-10T11:20:09;1.80;;;1.70;;
7719;SDS011;3902;49.474;8.616;2023-05-10T11:22:51;2.27;;;2.07;;
7719;SDS011;3902;49.474;8.616;2023-05-10T11:25:17;2.97;;;1.73;;
7719;SDS011;3902;49.474;8.616;2023-05-10T11:27:43;5.17;;;1.77;;
7719;SDS011;3902;49.474;8.616;2023-05-10T11:30:10;1.60;;;1.50;;
7719;SDS011;3902;49.474;8.616;2023-05-10T11:32:39;1.77;;;1.67;;
7719;SDS011;3902;49.474;8.616;2023-05-10T11:35:08;1.93;;;1.70;;
7719;SDS011;3902;49.474;8.616;2023-05-10T11:37:35;1.93;;;1.70;;
7719;SDS011;3902;49.474;8.616;2023-05-10T11:40:02;1.93;;;1.40;;
7719;SDS011;3902;49.474;8.616;2023-05-10T11:42:28;1.87;;;1.63;;
7719;SDS011;3902;49.474;8.616;2023-05-10T11:44:54;2.83;;;1.40;;
7719;SDS011;3902;49.474;8.616;2023-05-10T11:47:21;2.47;;;1.40;;
7719;SDS011;3902;49.474;8.616;2023-05-10T11:49:47;2.30;;;1.30;;
7719;SDS011;3902;49.474;8.616;2023-05-10T11:52:13;3.30;;;1.50;;
7719;SDS011;3902;49.474;8.616;2023-05-10T11:54:51;1.30;;;1.20;;
7719;SDS011;3902;49.474;8.616;2023-05-10T11:57:21;3.13;;;1.37;;
7719;SDS011;3902;49.474;8.616;2023-05-10T11:59:56;2.97;;;1.53;;
7719;SDS011;3902;49.474;8.616;2023-05-10T12:02:22;2.03;;;1.50;;
7719;SDS011;3902;49.474;8.616;2023-05-10T12:04:49;3.87;;;1.50;;
7719;SDS011;3902;49.474;8.616;2023-05-10T12:07:15;2.30;;;1.33;;
7719;SDS011;3902;49.474;8.616;2023-05-10T12:09:43;2.80;;;1.27;;
7719;SDS011;3902;49.474;8.616;2023-05-10T12:12:09;1.57;;;1.47;;
7719;SDS011;3902;49.474;8.616;2023-05-10T12:14:35;2.20;;;1.53;;
7719;SDS011;3902;49.474;8.616;2023-05-10T12:17:01;2.27;;;1.23;;
7719;SDS011;3902;49.474;8.616;2023-05-10T12:19:26;1.63;;;1.53;;
7719;SDS011;3902;49.474;8.616;2023-05-10T12:21:52;3.50;;;1.67;;
7719;SDS011;3902;49.474;8.616;2023-05-10T12:24:17;1.37;;;1.20;;
7719;SDS011;3902;49.474;8.616;2023-05-10T12:26:45;1.30;;;1.20;;
7719;SDS011;3902;49.474;8.616;2023-05-10T12:29:14;1.97;;;1.50;;
7719;SDS011;3902;49.474;8.616;2023-05-10T12:31:57;1.60;;;1.30;;
7719;SDS011;3902;49.474;8.616;2023-05-10T12:34:27;2.77;;;1.53;;
7719;SDS011;3902;49.474;8.616;2023-05-10T12:36:56;3.37;;;1.63;;
7719;SDS011;3902;49.474;8.616;2023-05-10T12:39:21;1.50;;;1.40;;
7719;SDS011;3902;49.474;8.616;2023-05-10T12:41:47;4.63;;;1.60;;
7719;SDS011;3902;49.474;8.616;2023-05-10T12:44:12;4.60;;;1.70;;
7719;SDS011;3902;49.474;8.616;2023-05-10T12:46:38;2.37;;;1.53;;
7719;SDS011;3902;49.474;8.616;2023-05-10T12:49:03;4.70;;;1.50;;
7719;SDS011;3902;49.474;8.616;2023-05-10T12:51:29;2.27;;;1.47;;
7719;SDS011;3902;49.474;8.616;2023-05-10T12:53:55;4.60;;;1.93;;
7719;SDS011;3902;49.474;8.616;2023-05-10T12:56:21;10.77;;;1.90;;
7719;SDS011;3902;49.474;8.616;2023-05-10T12:58:46;2.47;;;1.50;;
7719;SDS011;3902;49.474;8.616;2023-05-10T13:01:13;4.10;;;1.83;;
7719;SDS011;3902;49.474;8.616;2023-05-10T13:03:39;4.27;;;1.50;;
7719;SDS011;3902;49.474;8.616;2023-05-10T13:06:04;3.47;;;1.60;;
7719;SDS011;3902;49.474;8.616;2023-05-10T13:08:31;2.13;;;1.20;;
7719;SDS011;3902;49.474;8.616;2023-05-10T13:10:58;3.37;;;1.63;;
7719;SDS011;3902;49.474;8.616;2023-05-10T13:13:25;2.30;;;1.37;;
7719;SDS011;3902;49.474;8.616;2023-05-10T13:15:51;2.07;;;1.50;;
7719;SDS011;3902;49.474;8.616;2023-05-10T13:18:16;2.63;;;1.50;;
7719;SDS011;3902;49.474;8.616;2023-05-10T13:20:42;2.57;;;1.30;;
7719;SDS011;3902;49.474;8.616;2023-05-10T13:23:09;4.57;;;1.53;;
7719;SDS011;3902;49.474;8.616;2023-05-10T13:25:34;3.97;;;1.20;;
7719;SDS011;3902;49.474;8.616;2023-05-10T13:28:00;3.03;;;1.30;;
7719;SDS011;3902;49.474;8.616;2023-05-10T13:30:26;4.97;;;1.30;;
7719;SDS011;3902;49.474;8.616;2023-05-10T13:32:52;3.07;;;1.27;;
7719;SDS011;3902;49.474;8.616;2023-05-10T13:35:17;3.20;;;1.20;;
7719;SDS011;3902;49.474;8.616;2023-05-10T13:37:43;1.73;;;1.20;;
7719;SDS011;3902;49.474;8.616;2023-05-10T13:40:08;1.67;;;1.10;;
7719;SDS011;3902;49.474;8.616;2023-05-10T13:42:34;7.43;;;1.40;;
7719;SDS011;3902;49.474;8.616;2023-05-10T13:45:00;2.60;;;1.30;;
7719;SDS011;3902;49.474;8.616;2023-05-10T13:47:26;2.10;;;1.50;;
7719;SDS011;3902;49.474;8.616;2023-05-10T13:49:52;2.23;;;1.50;;
7719;SDS011;3902;49.474;8.616;2023-05-10T13:52:18;1.80;;;1.10;;
7719;SDS011;3902;49.474;8.616;2023-05-10T13:54:44;1.80;;;1.40;;
7719;SDS011;3902;49.474;8.616;2023-05-10T13:57:09;3.37;;;1.50;;
7719;SDS011;3902;49.474;8.616;2023-05-10T13:59:36;2.33;;;1.27;;
7719;SDS011;3902;49.474;8.616;2023-05-10T14:02:02;1.30;;;1.20;;
7719;SDS011;3902;49.474;8.616;2023-05-10T14:04:28;1.73;;;1.10;;
7719;SDS011;3902;49.474;8.616;2023-05-10T14:06:54;1.60;;;1.10;;
7719;SDS011;3902;49.474;8.616;2023-05-10T14:09:20;2.97;;;1.20;;
7719;SDS011;3902;49.474;8.616;2023-05-10T14:11:45;1.80;;;1.17;;
7719;SDS011;3902;49.474;8.616;2023-05-10T14:14:11;2.40;;;1.10;;
7719;SDS011;3902;49.474;8.616;2023-05-10T14:16:38;1.40;;;1.10;;
7719;SDS011;3902;49.474;8.616;2023-05-10T14:19:07;3.57;;;1.10;;
7719;SDS011;3902;49.474;8.616;2023-05-10T14:21:33;3.13;;;1.57;;
7719;SDS011;3902;49.474;8.616;2023-05-10T14:23:58;1.30;;;1.10;;
7719;SDS011;3902;49.474;8.616;2023-05-10T14:26:24;4.53;;;1.43;;
7719;SDS011;3902;49.474;8.616;2023-05-10T14:28:51;4.67;;;1.30;;
7719;SDS011;3902;49.474;8.616;2023-05-10T14:31:16;4.53;;;1.30;;
7719;SDS011;3902;49.474;8.616;2023-05-10T14:33:44;3.97;;;1.40;;
7719;SDS011;3902;49.474;8.616;2023-05-10T14:36:09;2.70;;;1.60;;
7719;SDS011;3902;49.474;8.616;2023-05-10T14:38:35;1.70;;;1.40;;
7719;SDS011;3902;49.474;8.616;2023-05-10T14:41:00;1.67;;;1.20;;
7719;SDS011;3902;49.474;8.616;2023-05-10T14:43:26;5.03;;;1.70;;
7719;SDS011;3902;49.474;8.616;2023-05-10T14:45:53;5.00;;;2.03;;
7719;SDS011;3902;49.474;8.616;2023-05-10T14:48:18;3.60;;;1.20;;
7719;SDS011;3902;49.474;8.616;2023-05-10T14:50:46;5.60;;;1.40;;
7719;SDS011;3902;49.474;8.616;2023-05-10T14:53:11;1.87;;;1.13;;
7719;SDS011;3902;49.474;8.616;2023-05-10T14:55:37;3.33;;;1.30;;
7719;SDS011;3902;49.474;8.616;2023-05-10T14:58:03;1.17;;;1.07;;
7719;SDS011;3902;49.474;8.616;2023-05-10T15:00:28;1.67;;;1.27;;
7719;SDS011;3902;49.474;8.616;2023-05-10T15:02:54;1.83;;;1.10;;
7719;SDS011;3902;49.474;8.616;2023-05-10T15:05:20;1.20;;;1.07;;
7719;SDS011;3902;49.474;8.616;2023-05-10T15:07:46;1.40;;;1.30;;
7719;SDS011;3902;49.474;8.616;2023-05-10T15:10:12;1.37;;;1.27;;
7719;SDS011;3902;49.474;8.616;2023-05-10T15:12:38;1.67;;;1.40;;
7719;SDS011;3902;49.474;8.616;2023-05-10T15:15:04;3.67;;;1.23;;
7719;SDS011;3902;49.474;8.616;2023-05-10T15:17:31;3.53;;;1.10;;
7719;SDS011;3902;49.474;8.616;2023-05-10T15:19:56;1.80;;;1.40;;
7719;SDS011;3902;49.474;8.616;2023-05-10T15:22:22;2.20;;;1.23;;
7719;SDS011;3902;49.474;8.616;2023-05-10T15:24:47;1.10;;;1.00;;
7719;SDS011;3902;49.474;8.616;2023-05-10T15:27:13;1.50;;;1.40;;
7719;SDS011;3902;49.474;8.616;2023-05-10T15:29:38;2.13;;;1.13;;
7719;SDS011;3902;49.474;8.616;2023-05-10T15:32:04;1.90;;;1.10;;
7719;SDS011;3902;49.474;8.616;2023-05-10T15:34:29;1.10;;;1.00;;
7719;SDS011;3902;49.474;8.616;2023-05-10T15:36:55;2.10;;;1.37;;